EDF - Elmendorf Afb

Pirep is a free, collaborative database of all public and private airports located within the United States. All pilots are welcome to contribute, edit, and improve any airport they have local knowledge about, no registration required.
Are you familiar with this airport? Help out other pilots by adding your local knowledge.
Uploaded photos will be licensed under a CC BY-SA 4.0 license. Please only upload photos you have the rights to use.
Tags
Undocu­mented
METAR / TAF
Webcam
Edit Tags
Food
Camping
Lodging
Car Rental
Bicycles
Swimming
Golfing
Fishing
Hot Springs
Museum
Flying Clubs
Airpark
Upcoming Events
No upcoming events. Is anything happening here soon?
*
*
*

Where exactly on/near the airport is this event taking place?

Is there a webpage with more information for this event?

Who should be contacted for more information?

What is this event all about?

Repeat every
Description
Transient Parking
Fuel Location
Landing & Tie-down Fees
Crew Car Availability
Flying Clubs
WiFi Access
Airport Statistics
Location: Anchorage, AK
Elevation: 213ft
Sectional: Anchorage
Activation date: Mar 1949
Fuel: J8 (prices)
Runway 06/24: 10,000ft
Runway 16/34: 7,493ft
Access: Private to everyone
This is a military facility.
Current Weather — VFR
  • Weather data is strictly informational and not for flight planning purposes.
  • METAR
    2024-05-30 01:55:00 AKDT
    Ceiling Wind Temperature Dewpoint Weather Visbility
    Sky clear Calm 45°F 32°F N/A 10SM
    Clouds: Scattered @ 8,000ft, Scattered @ 12,000ft
    Raw: PAED 300955Z 00000KT 10SM SCT080 SCT120 07/00 A3007 RMK AO2A SLP179 T00740001 $
  • TAF
    2024-05-29 21:00:00 AKDT – 2024-05-30 06:00:00 AKDT
    Ceiling Wind Weather Visbility
    7,000ft 330° @ 9kt N/A 6SM
    Clouds: Few @ 5,000ft, Broken @ 7,000ft
    Raw: TAF PAED 300500Z 3005/3111 33009KT 9999 FEW050 BKN070 QNH3002INS BECMG 3014/3015 34006KT 9999 SCT050 BKN100 QNH3006INS BECMG 3101/3102 16010G15KT 9999 FEW050 BKN100 QNH3008INS BECMG 3109/3110 06006KT 9999 FEW085 SCT120 QNH3002INS TX14/3023Z TN04/3014Z
  • TAF
    2024-05-30 06:00:00 AKDT – 2024-05-30 17:00:00 AKDT
    Ceiling Wind Weather Visbility
    10,000ft 340° @ 6kt N/A 6SM
    Clouds: Scattered @ 5,000ft, Broken @ 10,000ft
    Raw: TAF PAED 300500Z 3005/3111 33009KT 9999 FEW050 BKN070 QNH3002INS BECMG 3014/3015 34006KT 9999 SCT050 BKN100 QNH3006INS BECMG 3101/3102 16010G15KT 9999 FEW050 BKN100 QNH3008INS BECMG 3109/3110 06006KT 9999 FEW085 SCT120 QNH3002INS TX14/3023Z TN04/3014Z
  • TAF
    2024-05-30 17:00:00 AKDT – 2024-05-31 01:00:00 AKDT
    Ceiling Wind Weather Visbility
    10,000ft 160° @ 10kt, gusts 15kt N/A 6SM
    Clouds: Few @ 5,000ft, Broken @ 10,000ft
    Raw: TAF PAED 300500Z 3005/3111 33009KT 9999 FEW050 BKN070 QNH3002INS BECMG 3014/3015 34006KT 9999 SCT050 BKN100 QNH3006INS BECMG 3101/3102 16010G15KT 9999 FEW050 BKN100 QNH3008INS BECMG 3109/3110 06006KT 9999 FEW085 SCT120 QNH3002INS TX14/3023Z TN04/3014Z
  • TAF
    2024-05-31 01:00:00 AKDT – 2024-05-31 03:00:00 AKDT
    Ceiling Wind Weather Visbility
    Sky clear 60° @ 6kt N/A 6SM
    Clouds: Few @ 8,500ft, Scattered @ 12,000ft
    Raw: TAF PAED 300500Z 3005/3111 33009KT 9999 FEW050 BKN070 QNH3002INS BECMG 3014/3015 34006KT 9999 SCT050 BKN100 QNH3006INS BECMG 3101/3102 16010G15KT 9999 FEW050 BKN100 QNH3008INS BECMG 3109/3110 06006KT 9999 FEW085 SCT120 QNH3002INS TX14/3023Z TN04/3014Z
Click/tap to add an annotation marker to the map
Direct links to live image URLs will be displayed inline on this page. URLs to separate webpages will be linked to.
URL:
Direct links to live image URLs will be displayed inline on this page. URLs to separate webpages will be linked to.
URL:
Remarks
  • This airport has been surveyed by the national geodetic survey.
  • Arff faa index d/ cat 8/10.
  • Lndg rwy 16 not rcmnd for jet acft excpt durg day vfr due obstrn 337 ft msl lctd 1950 ft fm thr & 574 ft w of cngrln.
  • Hgr space & warm storage lmtd oct-may.
  • Preventive maint: tacan wed & fri 1600-1700z; ils tue & thu 1500-1700z; par sat-sun 1800-2000z; asr sat-sun 2000-2200.
Comments
Leave a comment What was your experience like at this airport?